createdAt,value
2022-11-19T00:01:55.311Z,73.06
2022-11-19T00:04:27.444Z,72.98
2022-11-19T00:07:01.385Z,73.04
2022-11-19T00:09:32.470Z,73.12
2022-11-19T00:12:21.397Z,73.11
2022-11-19T00:14:53.097Z,73.09
2022-11-19T00:17:24.833Z,73.06
2022-11-19T00:19:55.912Z,73.11
2022-11-19T00:22:28.183Z,73.09
2022-11-19T00:25:01.288Z,73.28
2022-11-19T00:27:32.982Z,73.29
2022-11-19T00:30:10.936Z,73.53
2022-11-19T00:32:38.117Z,73.60
2022-11-19T00:35:10.989Z,73.68
2022-11-19T00:37:42.523Z,73.79
2022-11-19T00:40:13.710Z,73.90
2022-11-19T00:42:46.222Z,74.00
2022-11-19T00:45:17.360Z,73.95
2022-11-19T00:47:48.669Z,74.03
2022-11-19T00:50:20.158Z,74.15
2022-11-19T00:52:51.913Z,74.45
2022-11-19T00:55:23.070Z,74.29
2022-11-19T00:57:54.260Z,74.52
2022-11-19T01:00:25.508Z,74.36
2022-11-19T01:02:57.763Z,74.26
2022-11-19T01:05:28.516Z,74.39
2022-11-19T01:07:59.979Z,74.33
2022-11-19T01:10:31.309Z,74.43
2022-11-19T01:13:20.549Z,74.31
2022-11-19T01:15:52.341Z,74.21
2022-11-19T01:18:24.184Z,74.14
2022-11-19T01:20:55.613Z,74.08
2022-11-19T01:23:26.560Z,73.96
2022-11-19T01:25:58.601Z,73.89
2022-11-19T01:28:31.686Z,73.79
2022-11-19T01:31:04.684Z,73.68
2022-11-19T01:33:36.090Z,73.63
2022-11-19T01:36:08.418Z,73.59
2022-11-19T01:38:47.625Z,73.51
2022-11-19T01:41:18.708Z,73.40
2022-11-19T01:43:52.187Z,73.32
2022-11-19T01:46:32.031Z,73.22
2022-11-19T01:49:04.805Z,73.11
2022-11-19T01:51:39.977Z,73.03
2022-11-19T01:54:12.908Z,72.97
2022-11-19T01:56:44.024Z,72.91
2022-11-19T01:59:17.471Z,72.90
2022-11-19T02:01:49.276Z,72.84
2022-11-19T02:04:22.465Z,72.76
2022-11-19T02:06:55.683Z,72.73
2022-11-19T02:09:28.273Z,72.71
2022-11-19T02:12:15.795Z,72.72
2022-11-19T02:14:59.947Z,72.74
2022-11-19T02:17:36.536Z,72.71
2022-11-19T02:20:08.985Z,72.70
2022-11-19T02:22:44.386Z,72.71
2022-11-19T02:25:20.049Z,72.64
2022-11-19T02:27:58.530Z,72.63
2022-11-19T02:30:30.728Z,72.47
2022-11-19T02:33:09.681Z,72.51
2022-11-19T02:35:45.647Z,72.52
2022-11-19T02:38:21.203Z,72.44
2022-11-19T02:40:53.725Z,72.53
2022-11-19T02:43:39.067Z,72.58
2022-11-19T02:46:11.543Z,72.50
2022-11-19T02:48:49.115Z,72.46
2022-11-19T02:51:20.869Z,72.53
2022-11-19T02:53:53.684Z,72.60
2022-11-19T02:56:26.243Z,72.52
2022-11-19T02:59:15.723Z,72.60
2022-11-19T03:02:07.987Z,72.58
2022-11-19T03:04:39.061Z,72.62
2022-11-19T03:07:17.574Z,72.51
2022-11-19T03:09:58.998Z,72.52
2022-11-19T03:12:50.015Z,72.48
2022-11-19T03:15:44.694Z,72.47
2022-11-19T03:18:17.371Z,72.55
2022-11-19T03:20:55.779Z,72.46
2022-11-19T03:23:28.101Z,72.52
2022-11-19T03:26:03.876Z,72.50
2022-11-19T03:28:36.133Z,72.48
2022-11-19T03:31:07.840Z,72.50
2022-11-19T03:33:40.624Z,72.46
2022-11-19T03:36:14.881Z,72.48
2022-11-19T03:38:47.700Z,72.37
2022-11-19T03:41:20.130Z,72.39
2022-11-19T03:43:57.979Z,72.29
2022-11-19T03:46:32.516Z,72.27
2022-11-19T03:49:04.939Z,72.28
2022-11-19T03:51:44.010Z,72.26
2022-11-19T03:54:15.494Z,72.24
2022-11-19T03:56:48.053Z,72.22
2022-11-19T03:59:22.482Z,72.18
2022-11-19T04:01:53.742Z,72.16
2022-11-19T04:04:37.848Z,72.14
2022-11-19T04:07:11.050Z,72.13
2022-11-19T04:09:42.411Z,72.16
2022-11-19T04:12:15.170Z,72.13
2022-11-19T04:14:47.160Z,72.15
2022-11-19T04:17:18.972Z,72.14
2022-11-19T04:19:50.288Z,72.06
2022-11-19T04:22:23.850Z,72.09
2022-11-19T04:24:54.795Z,72.05
2022-11-19T04:27:26.247Z,72.00
2022-11-19T04:29:57.476Z,71.99
2022-11-19T04:32:30.091Z,71.94
2022-11-19T04:35:01.413Z,71.89
2022-11-19T04:37:35.829Z,71.85
2022-11-19T04:40:07.848Z,71.84
2022-11-19T04:42:38.918Z,71.83
2022-11-19T04:45:10.989Z,71.80
2022-11-19T04:47:42.352Z,71.80
2022-11-19T04:50:15.120Z,71.79
2022-11-19T04:52:46.692Z,71.76
2022-11-19T04:55:17.944Z,71.71
2022-11-19T04:57:54.440Z,71.66
2022-11-19T05:00:26.394Z,71.65
2022-11-19T05:03:00.714Z,71.60
2022-11-19T05:05:32.460Z,71.60
2022-11-19T05:08:04.643Z,71.57
2022-11-19T05:10:36.885Z,71.53
2022-11-19T05:13:08.435Z,71.52
2022-11-19T05:15:39.627Z,71.47
2022-11-19T05:18:11.231Z,71.51
2022-11-19T05:20:42.224Z,71.42
2022-11-19T05:23:14.187Z,71.43
2022-11-19T05:25:47.611Z,71.30
2022-11-19T05:28:32.767Z,71.42
2022-11-19T05:30:57.533Z,71.38
2022-11-19T05:33:33.822Z,71.36
2022-11-19T05:36:02.361Z,71.28
2022-11-19T05:38:35.507Z,71.26
2022-11-19T05:41:06.919Z,71.27
2022-11-19T05:43:37.832Z,71.02
2022-11-19T05:46:09.057Z,70.89
2022-11-19T05:48:40.414Z,70.57
2022-11-19T05:51:13.203Z,70.52
2022-11-19T05:53:44.980Z,70.46
2022-11-19T05:56:16.030Z,70.36
2022-11-19T05:58:47.089Z,70.26
2022-11-19T06:01:19.367Z,70.07
2022-11-19T06:03:50.335Z,70.01
2022-11-19T06:06:22.189Z,69.97
2022-11-19T06:08:53.781Z,69.95
2022-11-19T06:11:42.591Z,69.78
2022-11-19T06:14:25.471Z,69.77
2022-11-19T06:17:03.998Z,69.77
2022-11-19T06:19:38.248Z,69.67
2022-11-19T06:22:10.239Z,69.59
2022-11-19T06:24:41.535Z,69.66
2022-11-19T06:27:12.609Z,69.79
2022-11-19T06:29:43.902Z,69.89
2022-11-19T06:32:15.857Z,69.87
2022-11-19T06:34:47.057Z,69.81
2022-11-19T06:37:18.439Z,69.84
2022-11-19T06:39:54.469Z,69.79
2022-11-19T06:42:37.969Z,69.60
2022-11-19T06:45:11.260Z,69.47
2022-11-19T06:47:43.042Z,69.44
2022-11-19T06:50:14.361Z,69.37
2022-11-19T06:52:45.831Z,69.19
2022-11-19T06:55:16.785Z,69.20
2022-11-19T06:57:48.166Z,69.20
2022-11-19T07:00:19.523Z,69.16
2022-11-19T07:02:50.728Z,69.12
2022-11-19T07:05:25.251Z,69.08
2022-11-19T07:08:01.579Z,69.18
2022-11-19T07:10:29.911Z,69.11
2022-11-19T07:13:02.447Z,69.11
2022-11-19T07:15:33.902Z,68.97
2022-11-19T07:18:07.458Z,68.81
2022-11-19T07:20:38.975Z,68.76
2022-11-19T07:23:12.060Z,68.68
2022-11-19T07:25:43.651Z,68.52
2022-11-19T07:28:16.236Z,68.52
2022-11-19T07:30:47.658Z,68.54
2022-11-19T07:33:20.869Z,68.66
2022-11-19T07:35:54.685Z,68.70
2022-11-19T07:38:25.807Z,68.80
2022-11-19T07:40:57.124Z,68.81
2022-11-19T07:43:28.336Z,68.93
2022-11-19T07:46:04.001Z,68.81
2022-11-19T07:48:35.849Z,68.54
2022-11-19T07:51:06.959Z,68.08
2022-11-19T07:53:38.292Z,67.49
2022-11-19T07:56:09.844Z,67.50
2022-11-19T07:58:45.934Z,67.54
2022-11-19T08:01:18.955Z,67.54
2022-11-19T08:03:56.587Z,67.34
2022-11-19T08:06:27.232Z,67.49
2022-11-19T08:08:58.601Z,67.59
2022-11-19T08:11:29.752Z,67.54
2022-11-19T08:14:03.507Z,67.54
2022-11-19T08:16:52.626Z,67.19
2022-11-19T08:19:23.836Z,67.18
2022-11-19T08:21:55.907Z,67.20
2022-11-19T08:24:27.733Z,67.02
2022-11-19T08:26:58.783Z,67.09
2022-11-19T08:29:30.894Z,67.00
2022-11-19T08:32:02.695Z,67.09
2022-11-19T08:34:34.475Z,67.12
2022-11-19T08:37:05.690Z,67.17
2022-11-19T08:39:37.100Z,67.28
2022-11-19T08:42:26.656Z,67.34
2022-11-19T08:44:58.932Z,67.31
2022-11-19T08:47:32.368Z,67.34
2022-11-19T08:50:03.749Z,67.34
2022-11-19T08:52:35.930Z,67.33
2022-11-19T08:55:08.574Z,67.38
2022-11-19T08:57:45.574Z,67.42
2022-11-19T09:00:18.295Z,67.37
2022-11-19T09:02:50.156Z,67.39
2022-11-19T09:05:30.992Z,67.42
2022-11-19T09:08:03.850Z,67.40
2022-11-19T09:10:38.249Z,67.47
2022-11-19T09:13:09.836Z,67.54
2022-11-19T09:15:42.375Z,67.48
2022-11-19T09:18:15.745Z,67.54
2022-11-19T09:20:47.276Z,67.63
2022-11-19T09:23:19.222Z,67.73
2022-11-19T09:25:59.218Z,67.14
2022-11-19T09:28:30.658Z,67.34
2022-11-19T09:31:05.394Z,67.31
2022-11-19T09:33:37.818Z,67.27
2022-11-19T09:36:10.121Z,67.09
2022-11-19T09:38:41.303Z,66.65
2022-11-19T09:41:20.779Z,66.12
2022-11-19T09:43:54.548Z,66.21
2022-11-19T09:46:26.935Z,65.25
2022-11-19T09:48:59.414Z,65.16
2022-11-19T09:51:32.116Z,64.88
2022-11-19T09:54:07.302Z,65.05
2022-11-19T09:56:40.173Z,65.24
2022-11-19T09:59:30.418Z,65.46
2022-11-19T10:02:01.392Z,65.59
2022-11-19T10:04:33.640Z,65.83
2022-11-19T10:07:09.101Z,65.75
2022-11-19T10:09:50.702Z,65.97
2022-11-19T10:12:35.091Z,65.64
2022-11-19T10:15:16.549Z,65.85
2022-11-19T10:18:03.566Z,66.04
2022-11-19T10:20:35.737Z,66.18
2022-11-19T10:23:24.605Z,66.31
2022-11-19T10:25:56.809Z,66.49
2022-11-19T10:28:29.191Z,66.46
2022-11-19T10:31:01.561Z,66.53
2022-11-19T10:33:33.953Z,66.54
2022-11-19T10:36:06.302Z,66.61
2022-11-19T10:38:41.889Z,66.66
2022-11-19T10:41:14.454Z,66.65
2022-11-19T10:43:48.476Z,66.59
2022-11-19T10:46:20.733Z,66.65
2022-11-19T10:48:56.070Z,66.66
2022-11-19T10:51:31.733Z,66.76
2022-11-19T10:54:04.200Z,66.84
2022-11-19T10:56:40.414Z,66.89
2022-11-19T10:59:12.875Z,66.97
2022-11-19T11:01:45.202Z,66.98
2022-11-19T11:04:23.651Z,66.90
2022-11-19T11:07:02.162Z,66.96
2022-11-19T11:09:34.592Z,66.99
2022-11-19T11:12:24.560Z,67.21
2022-11-19T11:14:57.053Z,67.33
2022-11-19T11:17:32.217Z,67.50
2022-11-19T11:20:07.762Z,67.52
2022-11-19T11:22:39.435Z,67.67
2022-11-19T11:25:23.984Z,67.68
2022-11-19T11:28:13.106Z,67.78
2022-11-19T11:31:03.052Z,67.81
2022-11-19T11:33:35.775Z,67.96
2022-11-19T11:36:08.371Z,68.04
2022-11-19T11:38:50.236Z,68.28
2022-11-19T11:44:02.926Z,68.23
2022-11-19T11:46:38.350Z,68.22
2022-11-19T11:49:12.890Z,68.30
2022-11-19T11:51:44.178Z,68.33
2022-11-19T11:54:19.059Z,68.29
2022-11-19T11:56:50.040Z,68.19
2022-11-19T11:59:28.362Z,68.15
2022-11-19T12:02:07.159Z,68.22
2022-11-19T12:04:38.425Z,68.31
2022-11-19T12:07:27.247Z,68.22
2022-11-19T12:10:03.729Z,68.34
2022-11-19T12:12:45.261Z,68.39
2022-11-19T12:15:23.730Z,68.36
2022-11-19T12:17:59.001Z,68.45
2022-11-19T12:20:46.343Z,68.52
2022-11-19T12:23:35.730Z,68.48
2022-11-19T12:26:17.248Z,68.49
2022-11-19T12:28:58.616Z,68.60
2022-11-19T12:31:30.956Z,68.50
2022-11-19T12:34:20.230Z,68.58
2022-11-19T12:36:59.075Z,68.61
2022-11-19T12:39:31.826Z,68.62
2022-11-19T12:42:07.147Z,68.50
2022-11-19T12:44:57.533Z,68.52
2022-11-19T12:47:30.150Z,68.62
2022-11-19T12:50:05.333Z,68.24
2022-11-19T12:52:38.016Z,68.28
2022-11-19T12:55:10.610Z,68.35
2022-11-19T12:57:49.189Z,68.28
2022-11-19T13:00:24.560Z,68.27
2022-11-19T13:02:57.273Z,68.28
2022-11-19T13:05:29.733Z,68.35
2022-11-19T13:08:02.171Z,68.42
2022-11-19T13:10:43.208Z,68.59
2022-11-19T13:13:15.977Z,68.64
2022-11-19T13:15:48.443Z,68.79
2022-11-19T13:18:20.675Z,68.82
2022-11-19T13:20:59.288Z,68.89
2022-11-19T13:23:31.926Z,69.05
2022-11-19T13:26:04.793Z,68.95
2022-11-19T13:28:37.460Z,68.91
2022-11-19T13:31:18.794Z,69.07
2022-11-19T13:33:51.238Z,69.18
2022-11-19T13:36:32.766Z,69.33
2022-11-19T13:39:18.001Z,69.33
2022-11-19T13:42:10.831Z,69.27
2022-11-19T13:44:41.873Z,69.35
2022-11-19T13:47:14.483Z,69.52
2022-11-19T13:49:47.058Z,69.48
2022-11-19T13:52:37.884Z,69.50
2022-11-19T13:55:10.180Z,69.40
2022-11-19T13:57:42.481Z,69.45
2022-11-19T14:00:24.138Z,69.46
2022-11-19T14:02:59.272Z,69.47
2022-11-19T14:05:43.715Z,69.56
2022-11-19T14:08:28.262Z,69.52
2022-11-19T14:11:00.669Z,69.55
2022-11-19T14:13:35.954Z,69.66
2022-11-19T14:16:37.945Z,69.68
2022-11-19T14:19:28.073Z,69.72
2022-11-19T14:22:17.685Z,69.80
2022-11-19T14:25:07.480Z,69.77
2022-11-19T14:27:38.491Z,69.83
2022-11-19T14:30:10.579Z,70.00
2022-11-19T14:32:49.249Z,69.90
2022-11-19T14:35:24.778Z,70.05
2022-11-19T14:37:57.757Z,69.95
2022-11-19T14:40:30.269Z,70.16
2022-11-19T14:43:20.345Z,70.16
2022-11-19T14:46:22.371Z,70.26
2022-11-19T14:48:55.403Z,70.23
2022-11-19T14:51:33.926Z,70.23
2022-11-19T14:54:18.283Z,70.35
2022-11-19T14:56:51.439Z,70.47
2022-11-19T14:59:24.782Z,70.38
2022-11-19T15:02:03.500Z,70.47
2022-11-19T15:04:35.978Z,70.44
2022-11-19T15:07:12.015Z,70.52
2022-11-19T15:09:53.298Z,70.55
2022-11-19T15:12:25.755Z,70.56
2022-11-19T15:15:05.756Z,70.62
2022-11-19T15:17:37.194Z,70.54
2022-11-19T15:20:10.449Z,70.56
2022-11-19T15:22:45.537Z,70.65
2022-11-19T15:25:30.065Z,70.59
2022-11-19T15:28:02.840Z,70.69
2022-11-19T15:30:38.992Z,70.68
2022-11-19T15:33:12.973Z,70.62
2022-11-19T15:35:51.601Z,70.69
2022-11-19T15:38:27.450Z,70.74
2022-11-19T15:41:00.634Z,70.72
2022-11-19T15:43:33.291Z,70.75
2022-11-19T15:46:20.584Z,70.92
2022-11-19T15:48:59.260Z,70.87
2022-11-19T15:51:31.691Z,70.82
2022-11-19T15:54:03.502Z,70.95
2022-11-19T15:56:41.409Z,71.00
2022-11-19T15:59:13.812Z,71.07
2022-11-19T16:01:45.074Z,71.08
2022-11-19T16:04:16.924Z,71.17
2022-11-19T16:06:49.343Z,71.21
2022-11-19T16:09:22.302Z,71.17
2022-11-19T16:12:12.094Z,71.23
2022-11-19T16:15:02.252Z,71.28
2022-11-19T16:17:43.159Z,71.31
2022-11-19T16:20:13.716Z,71.54
2022-11-19T16:22:48.622Z,71.53
2022-11-19T16:25:34.710Z,71.62
2022-11-19T16:28:07.557Z,71.56
2022-11-19T16:30:46.653Z,71.70
2022-11-19T16:33:24.405Z,71.73
2022-11-19T16:35:56.831Z,71.72
2022-11-19T16:38:28.895Z,71.68
2022-11-19T16:41:17.495Z,71.73
2022-11-19T16:43:50.103Z,71.76
2022-11-19T16:46:22.678Z,71.68
2022-11-19T16:48:54.886Z,71.79
2022-11-19T16:51:33.067Z,71.71
2022-11-19T16:54:04.484Z,71.75
2022-11-19T16:56:36.765Z,71.89
2022-11-19T16:59:08.235Z,71.91
2022-11-19T17:01:40.368Z,71.97
2022-11-19T17:04:12.926Z,71.99
2022-11-19T17:06:43.790Z,72.01
2022-11-19T17:09:16.160Z,72.15
2022-11-19T17:12:05.970Z,72.12
2022-11-19T17:14:39.261Z,72.05
2022-11-19T17:17:11.982Z,72.14
2022-11-19T17:19:43.118Z,72.19
2022-11-19T17:22:18.643Z,72.17
2022-11-19T17:24:50.132Z,72.25
2022-11-19T17:27:28.312Z,72.23
2022-11-19T17:30:03.485Z,72.25
2022-11-19T17:32:36.205Z,72.28
2022-11-19T17:35:10.857Z,72.24
2022-11-19T17:37:42.176Z,72.33
2022-11-19T17:40:13.239Z,72.31
2022-11-19T17:43:01.870Z,72.32
2022-11-19T17:45:32.812Z,72.42
2022-11-19T17:48:04.046Z,72.38
2022-11-19T17:50:34.799Z,72.38
2022-11-19T17:53:05.651Z,72.32
2022-11-19T17:55:36.728Z,72.41
2022-11-19T17:58:07.542Z,72.43
2022-11-19T18:00:38.600Z,72.64
2022-11-19T18:03:15.996Z,72.52
2022-11-19T18:05:50.387Z,72.54
2022-11-19T18:08:21.409Z,72.56
2022-11-19T18:10:52.524Z,72.68
2022-11-19T18:13:24.711Z,72.65
2022-11-19T18:15:55.853Z,72.64
2022-11-19T18:18:27.030Z,72.76
2022-11-19T18:21:01.970Z,72.68
2022-11-19T18:23:30.415Z,72.65
2022-11-19T18:26:01.342Z,72.75
2022-11-19T18:28:32.170Z,72.82
2022-11-19T18:31:02.957Z,72.87
2022-11-19T18:33:35.582Z,72.73
2022-11-19T18:36:07.107Z,72.80
2022-11-19T18:38:37.923Z,72.76
2022-11-19T18:41:10.264Z,72.79
2022-11-19T18:43:59.125Z,72.82
2022-11-19T18:46:29.929Z,72.76
2022-11-19T18:49:00.795Z,72.75
2022-11-19T18:51:32.455Z,72.86
2022-11-19T18:54:03.573Z,72.89
2022-11-19T18:56:34.518Z,72.92
2022-11-19T18:59:05.478Z,72.99
2022-11-19T19:01:38.727Z,72.97
2022-11-19T19:04:11.218Z,72.85
2022-11-19T19:06:42.548Z,72.97
2022-11-19T19:09:15.005Z,72.96
2022-11-19T19:12:05.416Z,72.94
2022-11-19T19:14:36.274Z,72.93
2022-11-19T19:17:07.678Z,73.12
2022-11-19T19:19:39.039Z,73.18
2022-11-19T19:22:10.529Z,73.31
2022-11-19T19:24:41.677Z,73.44
2022-11-19T19:27:12.862Z,73.32
2022-11-19T19:29:43.613Z,73.43
2022-11-19T19:32:14.541Z,73.53
2022-11-19T19:34:45.507Z,73.54
2022-11-19T19:37:16.470Z,73.59
2022-11-19T19:39:47.623Z,73.64
2022-11-19T19:42:19.339Z,73.68
2022-11-19T19:44:50.390Z,73.63
2022-11-19T19:47:21.470Z,73.60
2022-11-19T19:49:52.226Z,73.66
2022-11-19T19:52:23.415Z,73.62
2022-11-19T19:54:54.287Z,73.61
2022-11-19T19:57:26.946Z,73.65
2022-11-19T19:59:57.919Z,73.68
2022-11-19T20:02:28.665Z,73.72
2022-11-19T20:04:59.582Z,73.71
2022-11-19T20:07:32.179Z,73.72
2022-11-19T20:10:03.103Z,73.67
2022-11-19T20:12:51.588Z,73.70
2022-11-19T20:15:23.177Z,73.60
2022-11-19T20:17:53.879Z,73.64
2022-11-19T20:20:25.064Z,73.65
2022-11-19T20:22:56.276Z,73.52
2022-11-19T20:25:27.349Z,73.52
2022-11-19T20:27:58.349Z,73.58
2022-11-19T20:30:29.374Z,73.64
2022-11-19T20:33:01.877Z,73.74
2022-11-19T20:35:33.411Z,73.64
2022-11-19T20:38:04.302Z,73.62
2022-11-19T20:40:35.042Z,73.63
2022-11-19T20:43:19.803Z,73.67
2022-11-19T20:45:50.760Z,73.68
2022-11-19T20:48:21.929Z,73.68
2022-11-19T20:50:52.782Z,73.71
2022-11-19T20:53:24.372Z,73.65
2022-11-19T20:56:05.047Z,73.73
2022-11-19T20:58:27.637Z,73.72
2022-11-19T21:01:02.722Z,73.59
2022-11-19T21:03:34.192Z,73.64
2022-11-19T21:06:06.747Z,73.61
2022-11-19T21:08:37.781Z,73.63
2022-11-19T21:11:12.795Z,73.58
2022-11-19T21:13:44.621Z,73.51
2022-11-19T21:16:17.004Z,73.52
2022-11-19T21:18:47.974Z,73.52
2022-11-19T21:21:19.613Z,73.44
2022-11-19T21:23:51.099Z,73.42
2022-11-19T21:26:23.117Z,73.45
2022-11-19T21:28:55.137Z,73.38
2022-11-19T21:31:33.969Z,73.32
2022-11-19T21:34:01.965Z,73.37
2022-11-19T21:36:32.985Z,73.39
2022-11-19T21:39:05.000Z,73.38
2022-11-19T21:41:36.551Z,73.39
2022-11-19T21:44:07.704Z,73.40
2022-11-19T21:46:39.642Z,73.40
2022-11-19T21:49:10.742Z,73.35
2022-11-19T21:51:41.795Z,73.33
2022-11-19T21:54:12.979Z,73.35
2022-11-19T21:56:44.491Z,73.36
2022-11-19T21:59:15.584Z,73.46
2022-11-19T22:01:49.274Z,73.46
2022-11-19T22:04:19.149Z,73.42
2022-11-19T22:06:50.019Z,73.44
2022-11-19T22:09:21.281Z,73.49
2022-11-19T22:11:52.543Z,73.36
2022-11-19T22:14:24.272Z,73.35
2022-11-19T22:16:55.258Z,73.39
2022-11-19T22:19:26.545Z,73.39
2022-11-19T22:22:00.672Z,73.34
2022-11-19T22:24:31.963Z,73.39
2022-11-19T22:27:15.657Z,73.34
2022-11-19T22:29:46.601Z,73.33
2022-11-19T22:32:18.275Z,73.35
2022-11-19T22:34:49.452Z,73.32
2022-11-19T22:37:20.362Z,73.28
2022-11-19T22:39:51.460Z,73.33
2022-11-19T22:42:22.783Z,73.33
2022-11-19T22:44:54.118Z,73.30
2022-11-19T22:47:25.543Z,73.32
2022-11-19T22:49:56.687Z,73.27
2022-11-19T22:52:27.819Z,73.31
2022-11-19T22:54:58.997Z,73.26
2022-11-19T22:57:32.096Z,73.28
2022-11-19T23:00:02.970Z,73.30
2022-11-19T23:02:35.392Z,73.25
2022-11-19T23:05:06.759Z,73.26
2022-11-19T23:07:37.813Z,73.25
2022-11-19T23:10:09.690Z,73.30
2022-11-19T23:12:59.253Z,73.28
2022-11-19T23:15:30.155Z,73.38
2022-11-19T23:18:00.968Z,73.28
2022-11-19T23:20:32.441Z,73.28
2022-11-19T23:23:03.848Z,73.37
2022-11-19T23:25:35.006Z,73.38
2022-11-19T23:28:05.928Z,73.39
2022-11-19T23:30:36.708Z,73.42
2022-11-19T23:33:07.859Z,73.47
2022-11-19T23:35:38.921Z,73.44
2022-11-19T23:38:10.147Z,73.50
2022-11-19T23:40:41.349Z,73.49
2022-11-19T23:43:12.402Z,73.50
2022-11-19T23:45:43.398Z,73.51
2022-11-19T23:48:14.509Z,73.53
2022-11-19T23:50:45.451Z,73.53
2022-11-19T23:53:16.617Z,73.55
2022-11-19T23:55:50.728Z,73.55
2022-11-19T23:58:21.755Z,73.64
